Oaklawn, MD

10:16 AM EST on December 11, 2016 (GMT -0500)
palmer Rd, fort washington, MD | | Change Station

Elev 69 ft 38.77 °N, 76.99 °W | Updated 36 seconds ago

Overcast
Overcast
33.4 °F
Feels Like 33 °F
N
0.0
Wind Variable Wind from West

Today
High -- | Low -- °F
--% Chance of Precip.
Yesterday
High -- | Low -- °F
Precip. -- in
Pressure 30.57 in
Visibility 10.0 miles
Clouds Mostly Cloudy 12000 ft
Windchill 33 °F
Dew Point 18 °F
Humidity 55%
Rainfall 0.00 in
Snow Depth Not available.
7:16 AM 4:46 PM
Waxing Gibbous, 92% visible
METAR KADW 111458Z AUTO 11006KT 10SM BKN120 M01/M08 A3054 RMK AO2 SLP352 T10061085 50004
Pressure 30.57 in
Visibility 10.0 miles
Clouds Mostly Cloudy 12000 ft
Windchill 33 °F
Dew Point 18 °F
Humidity 55%
Rainfall 0.00 in
Snow Depth Not available.
7:16 AM 4:46 PM
Waxing Gibbous, 92% visible
METAR KADW 111458Z AUTO 11006KT 10SM BKN120 M01/M08 A3054 RMK AO2 SLP352 T10061085 50004

10-Day Weather Forecast

Almanac

Astronomy

Dec. 11, 2016 Rise Set
Actual Time
Civil Twilight
Nautical Twilight
Astronomical Twilight
Moon
Length of Visible Light
Length of Day
Tomorrow will be .
, % of the Moon is Illuminated

Today's Extremes

State Highs State Lows

Community

WunderPhotos

Upload Photos

1,956,725 photos uploaded!

WunderBlog® & News

Nearby

Air Quality

  Air Quality AQ Index Pollutant
Not available.

Snow Depth

Station Depth Elevation

Earthquake Activity

City Distance Mag. Time & Date
Minimum magnitude displayed is 2.5.

Coastal Water Temperatures

Place Temperature

Stations

Nearby Weather Stations

Station Location Temp. Windchill Dew Point Humidity Wind Precip. Elev Updated Type
                   

Watches & Warnings

There are currently no watches in effect.